createdAt,value
2022-10-30T00:01:17.202Z,17.12
2022-10-30T00:03:43.661Z,17.10
2022-10-30T00:06:10.175Z,17.07
2022-10-30T00:08:36.660Z,17.01
2022-10-30T00:11:16.297Z,16.99
2022-10-30T00:13:44.745Z,17.00
2022-10-30T00:16:11.344Z,16.95
2022-10-30T00:18:39.910Z,16.86
2022-10-30T00:21:12.403Z,16.86
2022-10-30T00:23:40.988Z,16.83
2022-10-30T00:26:08.072Z,16.82
2022-10-30T00:28:34.937Z,16.81
2022-10-30T00:31:05.468Z,16.78
2022-10-30T00:33:32.769Z,16.77
2022-10-30T00:35:59.903Z,16.76
2022-10-30T00:38:26.673Z,16.74
2022-10-30T00:40:53.420Z,16.71
2022-10-30T00:43:33.930Z,16.70
2022-10-30T00:46:22.899Z,16.70
2022-10-30T00:48:59.628Z,16.68
2022-10-30T00:51:28.769Z,16.69
2022-10-30T00:53:57.547Z,16.68
2022-10-30T00:56:24.692Z,16.60
2022-10-30T00:58:58.482Z,16.64
2022-10-30T01:01:27.527Z,16.62
2022-10-30T01:03:58.219Z,16.60
2022-10-30T01:06:25.685Z,16.60
2022-10-30T01:08:58.811Z,16.58
2022-10-30T01:11:26.962Z,16.53
2022-10-30T01:13:57.522Z,16.55
2022-10-30T01:16:37.563Z,16.52
2022-10-30T01:19:15.970Z,16.45
2022-10-30T01:22:03.834Z,16.44
2022-10-30T01:24:45.409Z,16.38
2022-10-30T01:27:27.099Z,16.37
2022-10-30T01:30:06.357Z,16.35
2022-10-30T01:32:35.493Z,16.29
2022-10-30T01:35:31.742Z,16.19
2022-10-30T01:38:13.959Z,16.09
2022-10-30T01:40:40.412Z,16.08
2022-10-30T01:43:12.613Z,16.10
2022-10-30T01:46:09.589Z,16.11
2022-10-30T01:48:54.028Z,16.11
2022-10-30T01:51:45.101Z,16.13
2022-10-30T01:54:27.931Z,16.13
2022-10-30T01:57:18.856Z,16.12
2022-10-30T01:59:58.157Z,16.10
2022-10-30T02:02:24.930Z,16.09
2022-10-30T02:04:51.710Z,16.02
2022-10-30T02:07:18.831Z,15.99
2022-10-30T02:09:45.395Z,15.98
2022-10-30T02:12:11.807Z,15.95
2022-10-30T02:14:43.086Z,15.91
2022-10-30T02:17:13.938Z,15.84
2022-10-30T02:19:40.352Z,15.86
2022-10-30T02:22:07.111Z,15.72
2022-10-30T02:24:33.575Z,15.75
2022-10-30T02:27:00.064Z,15.73
2022-10-30T02:29:26.840Z,15.71
2022-10-30T02:31:53.721Z,15.70
2022-10-30T02:34:23.180Z,15.59
2022-10-30T02:36:49.583Z,15.49
2022-10-30T02:39:16.006Z,15.46
2022-10-30T02:41:42.389Z,15.47
2022-10-30T02:44:08.859Z,15.47
2022-10-30T02:46:35.413Z,15.43
2022-10-30T02:49:02.752Z,15.39
2022-10-30T02:51:31.498Z,15.36
2022-10-30T02:54:01.153Z,15.39
2022-10-30T02:56:27.787Z,15.38
2022-10-30T02:58:55.899Z,15.36
2022-10-30T03:01:22.411Z,15.33
2022-10-30T03:03:48.925Z,15.30
2022-10-30T03:06:16.911Z,15.30
2022-10-30T03:08:44.362Z,15.28
2022-10-30T03:11:20.964Z,15.28
2022-10-30T03:13:48.458Z,15.26
2022-10-30T03:16:23.429Z,15.20
2022-10-30T03:18:55.549Z,15.18
2022-10-30T03:21:24.779Z,15.14
2022-10-30T03:23:51.503Z,15.11
2022-10-30T03:26:19.001Z,15.10
2022-10-30T03:28:45.478Z,15.08
2022-10-30T03:31:14.731Z,15.07
2022-10-30T03:33:41.505Z,15.08
2022-10-30T03:36:10.286Z,15.08
2022-10-30T03:38:37.481Z,15.10
2022-10-30T03:41:04.539Z,15.11
2022-10-30T03:43:31.105Z,15.08
2022-10-30T03:45:57.973Z,14.99
2022-10-30T03:48:26.398Z,14.93
2022-10-30T03:50:59.731Z,14.91
2022-10-30T03:53:28.363Z,14.93
2022-10-30T03:56:15.547Z,14.89
2022-10-30T03:58:41.965Z,14.91
2022-10-30T04:01:09.843Z,14.86
2022-10-30T04:03:36.420Z,14.88
2022-10-30T04:06:03.198Z,14.85
2022-10-30T04:08:32.719Z,14.82
2022-10-30T04:10:59.254Z,14.79
2022-10-30T04:13:26.131Z,14.76
2022-10-30T04:15:56.357Z,14.70
2022-10-30T04:18:25.393Z,14.66
2022-10-30T04:20:51.932Z,14.63
2022-10-30T04:23:20.081Z,14.66
2022-10-30T04:25:46.530Z,14.65
2022-10-30T04:28:13.566Z,14.59
2022-10-30T04:30:40.558Z,14.59
2022-10-30T04:33:10.333Z,14.58
2022-10-30T04:35:41.299Z,14.56
2022-10-30T04:38:10.421Z,14.52
2022-10-30T04:40:40.372Z,14.51
2022-10-30T04:43:07.893Z,14.53
2022-10-30T04:45:34.959Z,14.48
2022-10-30T04:48:21.688Z,14.33
2022-10-30T04:50:48.225Z,14.29
2022-10-30T04:53:27.352Z,14.27
2022-10-30T04:55:54.734Z,14.26
2022-10-30T04:58:21.189Z,14.26
2022-10-30T05:00:47.600Z,14.27
2022-10-30T05:03:23.012Z,14.28
2022-10-30T05:05:57.948Z,14.29
2022-10-30T05:08:24.473Z,14.23
2022-10-30T05:10:50.917Z,14.19
2022-10-30T05:13:17.293Z,14.16
2022-10-30T05:15:43.726Z,14.12
2022-10-30T05:18:10.580Z,14.09
2022-10-30T05:20:36.996Z,14.05
2022-10-30T05:23:03.629Z,14.05
2022-10-30T05:25:30.409Z,14.02
2022-10-30T05:28:04.912Z,14.00
2022-10-30T05:30:33.007Z,13.99
2022-10-30T05:33:11.721Z,13.97
2022-10-30T05:35:38.761Z,13.94
2022-10-30T05:38:07.226Z,13.94
2022-10-30T05:40:34.739Z,13.89
2022-10-30T05:43:02.130Z,13.80
2022-10-30T05:45:37.580Z,13.81
2022-10-30T05:48:05.254Z,13.77
2022-10-30T05:50:35.333Z,13.77
2022-10-30T05:53:04.182Z,13.72
2022-10-30T05:55:31.087Z,13.67
2022-10-30T05:58:05.477Z,13.65
2022-10-30T06:00:35.158Z,13.66
2022-10-30T06:03:06.605Z,13.65
2022-10-30T06:05:36.216Z,13.63
2022-10-30T06:08:04.955Z,13.61
2022-10-30T06:10:32.026Z,13.61
2022-10-30T06:13:01.104Z,13.60
2022-10-30T06:15:29.645Z,13.53
2022-10-30T06:17:56.708Z,13.46
2022-10-30T06:20:26.337Z,13.33
2022-10-30T06:23:06.962Z,13.29
2022-10-30T06:25:40.732Z,13.30
2022-10-30T06:28:09.354Z,13.35
2022-10-30T06:30:35.912Z,13.38
2022-10-30T06:33:04.680Z,13.38
2022-10-30T06:35:32.089Z,13.38
2022-10-30T06:38:00.385Z,13.36
2022-10-30T06:40:28.243Z,13.37
2022-10-30T06:42:54.927Z,13.43
2022-10-30T06:45:23.488Z,13.43
2022-10-30T06:47:50.435Z,13.41
2022-10-30T06:50:19.405Z,13.34
2022-10-30T06:52:46.919Z,13.35
2022-10-30T06:55:13.695Z,13.38
2022-10-30T06:57:40.363Z,13.40
2022-10-30T07:00:08.461Z,13.44
2022-10-30T07:02:35.264Z,13.50
2022-10-30T07:05:07.450Z,13.52
2022-10-30T07:07:34.370Z,13.53
2022-10-30T07:10:00.899Z,13.55
2022-10-30T07:12:27.642Z,13.57
2022-10-30T07:14:54.119Z,13.58
2022-10-30T07:17:20.597Z,13.62
2022-10-30T07:19:47.029Z,13.65
2022-10-30T07:22:13.432Z,13.69
2022-10-30T07:24:39.882Z,13.74
2022-10-30T07:27:06.342Z,13.80
2022-10-30T07:29:32.831Z,13.85
2022-10-30T07:32:03.348Z,13.88
2022-10-30T07:34:30.545Z,13.93
2022-10-30T07:36:57.005Z,13.99
2022-10-30T07:39:23.589Z,14.05
2022-10-30T07:41:53.361Z,14.13
2022-10-30T07:44:19.774Z,14.20
2022-10-30T07:46:46.158Z,14.24
2022-10-30T07:49:12.593Z,14.30
2022-10-30T07:51:39.185Z,14.39
2022-10-30T07:54:05.742Z,14.48
2022-10-30T07:56:32.166Z,14.52
2022-10-30T07:58:58.650Z,14.61
2022-10-30T08:01:25.324Z,14.69
2022-10-30T08:03:51.949Z,14.73
2022-10-30T08:06:21.407Z,14.85
2022-10-30T08:08:51.202Z,14.95
2022-10-30T08:11:17.699Z,15.04
2022-10-30T08:13:44.174Z,15.15
2022-10-30T08:16:10.724Z,15.25
2022-10-30T08:18:42.339Z,15.31
2022-10-30T08:21:09.150Z,15.43
2022-10-30T08:23:35.825Z,15.57
2022-10-30T08:26:02.268Z,15.71
2022-10-30T08:28:31.815Z,15.86
2022-10-30T08:31:01.113Z,16.02
2022-10-30T08:33:27.655Z,16.18
2022-10-30T08:35:56.748Z,16.35
2022-10-30T08:38:23.905Z,16.52
2022-10-30T08:40:50.436Z,16.72
2022-10-30T08:43:16.834Z,16.87
2022-10-30T08:45:43.342Z,17.07
2022-10-30T08:48:11.924Z,17.24
2022-10-30T08:50:38.345Z,17.44
2022-10-30T08:53:08.285Z,17.64
2022-10-30T08:55:35.474Z,17.82
2022-10-30T08:58:02.052Z,18.00
2022-10-30T09:00:29.042Z,18.21
2022-10-30T09:02:56.151Z,18.41
2022-10-30T09:05:22.931Z,18.60
2022-10-30T09:07:49.367Z,18.80
2022-10-30T09:10:16.421Z,18.98
2022-10-30T09:12:42.892Z,19.17
2022-10-30T09:15:09.589Z,19.33
2022-10-30T09:17:36.094Z,19.49
2022-10-30T09:20:02.648Z,19.68
2022-10-30T09:22:29.191Z,19.85
2022-10-30T09:24:55.592Z,20.02
2022-10-30T09:27:22.029Z,20.24
2022-10-30T09:29:48.546Z,20.43
2022-10-30T09:32:15.004Z,20.66
2022-10-30T09:34:41.893Z,20.81
2022-10-30T09:37:08.399Z,20.97
2022-10-30T09:39:34.889Z,21.13
2022-10-30T09:42:07.387Z,21.36
2022-10-30T09:45:15.320Z,21.61
2022-10-30T09:47:41.883Z,21.86
2022-10-30T09:50:11.298Z,22.00
2022-10-30T09:52:53.734Z,22.16
2022-10-30T09:55:45.266Z,22.28
2022-10-30T09:58:24.565Z,22.46
2022-10-30T10:00:54.087Z,22.69
2022-10-30T10:03:32.798Z,22.91
2022-10-30T10:08:34.048Z,23.22
2022-10-30T10:11:08.361Z,23.36
2022-10-30T10:13:42.049Z,23.60
2022-10-30T10:16:22.583Z,23.73
2022-10-30T10:19:09.286Z,23.96
2022-10-30T10:21:43.007Z,24.14
2022-10-30T10:24:34.778Z,24.23
2022-10-30T10:27:39.735Z,24.47
2022-10-30T10:30:20.165Z,24.63
2022-10-30T10:33:04.867Z,24.90
2022-10-30T10:35:51.275Z,24.97
2022-10-30T10:38:23.494Z,25.22
2022-10-30T10:40:52.834Z,25.39
2022-10-30T10:43:25.251Z,25.23
2022-10-30T10:46:22.764Z,25.39
2022-10-30T10:49:27.075Z,25.40
2022-10-30T10:52:09.929Z,25.90
2022-10-30T10:54:46.668Z,26.25
2022-10-30T10:57:32.484Z,26.12
2022-10-30T11:00:04.214Z,25.93
2022-10-30T11:02:59.085Z,25.98
2022-10-30T11:05:48.150Z,26.53
2022-10-30T11:08:19.840Z,26.58
2022-10-30T11:10:56.154Z,26.46
2022-10-30T11:13:25.006Z,26.64
2022-10-30T11:15:57.928Z,26.73
2022-10-30T11:18:25.089Z,26.81
2022-10-30T11:20:51.428Z,27.20
2022-10-30T11:23:34.586Z,27.57
2022-10-30T11:26:04.506Z,28.02
2022-10-30T11:28:48.944Z,28.38
2022-10-30T11:31:40.582Z,28.96
2022-10-30T11:34:14.767Z,29.10
2022-10-30T11:36:41.718Z,28.84
2022-10-30T11:39:28.853Z,28.91
2022-10-30T11:41:58.398Z,28.73
2022-10-30T11:44:32.930Z,28.99
2022-10-30T11:47:00.532Z,29.44
2022-10-30T11:50:07.680Z,29.20
2022-10-30T11:52:42.290Z,29.49
2022-10-30T11:55:18.253Z,28.89
2022-10-30T11:57:50.412Z,29.54
2022-10-30T12:00:23.227Z,29.52
2022-10-30T12:02:52.618Z,30.09
2022-10-30T12:05:43.604Z,30.69
2022-10-30T12:08:15.320Z,29.66
2022-10-30T12:10:47.701Z,30.05
2022-10-30T12:13:19.483Z,29.23
2022-10-30T12:15:49.898Z,29.60
2022-10-30T12:18:22.571Z,29.56
2022-10-30T12:20:55.582Z,29.14
2022-10-30T12:23:25.868Z,29.62
2022-10-30T12:25:59.435Z,29.36
2022-10-30T12:28:31.658Z,29.50
2022-10-30T12:31:21.491Z,30.07
2022-10-30T12:36:47.247Z,29.81
2022-10-30T12:39:31.278Z,29.54
2022-10-30T12:42:05.788Z,29.39
2022-10-30T12:44:48.626Z,29.13
2022-10-30T12:47:35.756Z,29.19
2022-10-30T12:50:14.095Z,28.46
2022-10-30T12:52:45.687Z,27.86
2022-10-30T12:55:26.893Z,27.97
2022-10-30T12:58:26.143Z,28.28
2022-10-30T13:01:01.007Z,28.24
2022-10-30T13:03:34.664Z,28.41
2022-10-30T13:06:08.270Z,28.00
2022-10-30T13:08:37.740Z,28.09
2022-10-30T13:11:30.379Z,28.42
2022-10-30T13:13:59.310Z,29.19
2022-10-30T13:16:31.374Z,29.48
2022-10-30T13:19:00.655Z,29.58
2022-10-30T13:21:36.478Z,28.93
2022-10-30T13:24:23.688Z,29.04
2022-10-30T13:26:53.251Z,28.91
2022-10-30T13:29:27.239Z,28.69
2022-10-30T13:32:19.977Z,28.50
2022-10-30T13:35:15.722Z,29.11
2022-10-30T13:37:44.073Z,28.82
2022-10-30T13:40:22.570Z,28.43
2022-10-30T13:43:16.942Z,28.48
2022-10-30T13:45:52.358Z,28.50
2022-10-30T13:48:37.518Z,27.94
2022-10-30T13:51:21.922Z,27.50
2022-10-30T13:53:58.425Z,27.73
2022-10-30T13:56:24.975Z,27.56
2022-10-30T13:59:07.949Z,27.46
2022-10-30T14:01:46.437Z,26.96
2022-10-30T14:04:17.247Z,27.12
2022-10-30T14:06:46.734Z,27.01
2022-10-30T14:09:43.179Z,26.81
2022-10-30T14:12:47.387Z,26.37
2022-10-30T14:15:32.197Z,26.10
2022-10-30T14:18:14.146Z,25.86
2022-10-30T14:20:46.310Z,25.93
2022-10-30T14:23:19.498Z,25.82
2022-10-30T14:26:13.600Z,25.78
2022-10-30T14:28:43.849Z,25.62
2022-10-30T14:31:18.647Z,25.67
2022-10-30T14:33:45.541Z,25.62
2022-10-30T14:36:22.521Z,25.52
2022-10-30T14:39:15.154Z,25.47
2022-10-30T14:41:49.476Z,25.36
2022-10-30T14:44:37.643Z,25.40
2022-10-30T14:47:25.990Z,25.40
2022-10-30T14:50:04.865Z,25.37
2022-10-30T14:52:48.530Z,25.48
2022-10-30T14:55:48.429Z,25.66
2022-10-30T14:58:21.288Z,25.67
2022-10-30T15:00:48.429Z,25.63
2022-10-30T15:03:30.398Z,25.58
2022-10-30T15:06:02.259Z,25.50
2022-10-30T15:08:41.009Z,25.39
2022-10-30T15:11:30.657Z,25.32
2022-10-30T15:14:01.334Z,25.18
2022-10-30T15:16:29.405Z,25.03
2022-10-30T15:19:04.426Z,24.93
2022-10-30T15:21:33.837Z,24.82
2022-10-30T15:24:02.343Z,24.71
2022-10-30T15:26:35.986Z,24.60
2022-10-30T15:29:03.748Z,24.51
2022-10-30T15:31:30.248Z,24.31
2022-10-30T15:33:59.919Z,24.15
2022-10-30T15:36:30.432Z,24.02
2022-10-30T15:39:05.801Z,23.87
2022-10-30T15:41:42.134Z,23.80
2022-10-30T15:44:08.666Z,23.64
2022-10-30T15:46:35.185Z,23.54
2022-10-30T15:49:01.798Z,23.40
2022-10-30T15:51:28.337Z,23.22
2022-10-30T15:54:01.094Z,23.06
2022-10-30T15:56:33.283Z,22.93
2022-10-30T15:59:08.000Z,22.79
2022-10-30T16:01:43.498Z,22.69
2022-10-30T16:04:23.160Z,22.57
2022-10-30T16:07:17.918Z,22.44
2022-10-30T16:09:53.772Z,22.32
2022-10-30T16:12:21.103Z,22.20
2022-10-30T16:14:47.661Z,22.09
2022-10-30T16:17:14.137Z,21.98
2022-10-30T16:19:46.870Z,21.85
2022-10-30T16:22:19.077Z,21.73
2022-10-30T16:24:45.818Z,21.62
2022-10-30T16:27:21.070Z,21.51
2022-10-30T16:29:50.712Z,21.33
2022-10-30T16:32:21.235Z,21.26
2022-10-30T16:34:48.796Z,21.14
2022-10-30T16:37:24.460Z,20.96
2022-10-30T16:39:53.466Z,20.85
2022-10-30T16:42:29.128Z,20.76
2022-10-30T16:45:27.854Z,20.61
2022-10-30T16:48:00.166Z,20.55
2022-10-30T16:50:35.427Z,20.45
2022-10-30T16:53:18.562Z,20.39
2022-10-30T16:55:45.318Z,20.30
2022-10-30T16:58:13.828Z,20.20
2022-10-30T17:00:42.065Z,20.08
2022-10-30T17:03:11.535Z,20.04
2022-10-30T17:05:40.503Z,19.95
2022-10-30T17:08:27.119Z,19.83
2022-10-30T17:11:02.339Z,19.77
2022-10-30T17:13:28.787Z,19.74
2022-10-30T17:15:55.898Z,19.69
2022-10-30T17:18:34.149Z,19.56
2022-10-30T17:21:11.107Z,19.55
2022-10-30T17:23:44.929Z,19.45
2022-10-30T17:26:12.830Z,19.39
2022-10-30T17:28:39.493Z,19.32
2022-10-30T17:31:31.951Z,19.26
2022-10-30T17:34:06.246Z,19.16
2022-10-30T17:36:32.900Z,19.12
2022-10-30T17:38:59.491Z,19.00
2022-10-30T17:41:26.117Z,18.92
2022-10-30T17:43:55.984Z,18.80
2022-10-30T17:46:24.038Z,18.68
2022-10-30T17:48:50.988Z,18.63
2022-10-30T17:51:18.899Z,18.59
2022-10-30T17:53:48.667Z,18.52
2022-10-30T17:56:19.595Z,18.45
2022-10-30T17:58:46.374Z,18.45
2022-10-30T18:01:22.217Z,18.44
2022-10-30T18:03:50.114Z,18.41
2022-10-30T18:06:25.898Z,18.37
2022-10-30T18:08:53.553Z,18.23
2022-10-30T18:11:25.054Z,18.31
2022-10-30T18:13:52.664Z,18.24
2022-10-30T18:16:19.794Z,18.23
2022-10-30T18:18:46.465Z,18.21
2022-10-30T18:21:17.661Z,18.19
2022-10-30T18:23:52.376Z,18.19
2022-10-30T18:26:25.242Z,18.18
2022-10-30T18:28:51.886Z,18.15
2022-10-30T18:31:23.750Z,18.13
2022-10-30T18:33:50.898Z,18.11
2022-10-30T18:36:20.256Z,18.10
2022-10-30T18:38:47.033Z,18.09
2022-10-30T18:41:15.248Z,18.04
2022-10-30T18:43:45.660Z,18.01
2022-10-30T18:46:14.630Z,17.97
2022-10-30T18:48:41.113Z,17.94
2022-10-30T18:51:16.293Z,17.89
2022-10-30T18:53:50.966Z,17.84
2022-10-30T18:56:27.526Z,17.82
2022-10-30T18:58:58.790Z,17.75
2022-10-30T19:01:31.513Z,17.61
2022-10-30T19:04:00.886Z,17.45
2022-10-30T19:06:27.676Z,17.47
2022-10-30T19:08:54.053Z,17.34
2022-10-30T19:11:24.637Z,17.23
2022-10-30T19:13:53.741Z,17.16
2022-10-30T19:16:21.264Z,17.13
2022-10-30T19:18:48.444Z,17.14
2022-10-30T19:21:35.232Z,17.11
2022-10-30T19:24:02.734Z,17.11
2022-10-30T19:26:29.120Z,16.92
2022-10-30T19:28:55.623Z,17.14
2022-10-30T19:31:22.166Z,17.13
2022-10-30T19:33:53.032Z,17.16
2022-10-30T19:36:33.491Z,17.20
2022-10-30T19:39:05.753Z,17.16
2022-10-30T19:41:35.333Z,17.18
2022-10-30T19:44:01.714Z,17.14
2022-10-30T19:46:28.128Z,17.12
2022-10-30T19:48:57.708Z,17.10
2022-10-30T19:51:26.407Z,17.03
2022-10-30T19:53:53.715Z,16.96
2022-10-30T19:56:21.035Z,16.94
2022-10-30T19:58:47.747Z,16.95
2022-10-30T20:01:14.808Z,16.88
2022-10-30T20:03:41.400Z,16.85
2022-10-30T20:06:12.973Z,16.81
2022-10-30T20:08:39.412Z,16.85
2022-10-30T20:11:05.901Z,16.82
2022-10-30T20:13:33.394Z,16.81
2022-10-30T20:16:00.729Z,16.92
2022-10-30T20:18:30.592Z,16.95
2022-10-30T20:20:59.589Z,16.92
2022-10-30T20:23:26.400Z,16.97
2022-10-30T20:25:57.503Z,17.10
2022-10-30T20:28:28.445Z,17.15
2022-10-30T20:30:55.435Z,17.14
2022-10-30T20:33:23.158Z,17.13
2022-10-30T20:35:51.088Z,17.16
2022-10-30T20:38:20.152Z,17.16
2022-10-30T20:40:47.951Z,17.17
2022-10-30T20:43:20.114Z,17.14
2022-10-30T20:45:47.444Z,17.11
2022-10-30T20:48:14.116Z,17.00
2022-10-30T20:50:41.635Z,16.96
2022-10-30T20:53:12.111Z,17.02
2022-10-30T20:55:38.838Z,17.02
2022-10-30T20:58:06.141Z,17.00
2022-10-30T21:00:32.790Z,17.05
2022-10-30T21:03:01.852Z,17.04
2022-10-30T21:05:43.159Z,17.04
2022-10-30T21:08:11.089Z,17.01
2022-10-30T21:10:38.395Z,16.98
2022-10-30T21:13:08.669Z,16.91
2022-10-30T21:15:41.640Z,16.82
2022-10-30T21:18:08.867Z,16.72
2022-10-30T21:20:36.795Z,16.74
2022-10-30T21:23:03.730Z,16.70
2022-10-30T21:25:32.215Z,16.68
2022-10-30T21:27:59.140Z,16.70
2022-10-30T21:30:25.687Z,16.66
2022-10-30T21:32:52.172Z,16.64
2022-10-30T21:35:18.941Z,16.61
2022-10-30T21:37:45.437Z,16.58
2022-10-30T21:40:12.580Z,16.55
2022-10-30T21:42:39.062Z,16.49
2022-10-30T21:45:06.316Z,16.45
2022-10-30T21:47:32.725Z,16.37
2022-10-30T21:49:59.142Z,16.29
2022-10-30T21:52:25.553Z,16.33
2022-10-30T21:54:51.965Z,16.36
2022-10-30T21:57:25.520Z,16.35
2022-10-30T21:59:51.953Z,16.31
2022-10-30T22:02:18.463Z,16.35
2022-10-30T22:04:47.297Z,16.39
2022-10-30T22:07:13.772Z,16.40
2022-10-30T22:09:40.158Z,16.42
2022-10-30T22:12:06.999Z,16.44
2022-10-30T22:14:33.442Z,16.48
2022-10-30T22:16:59.899Z,16.42
2022-10-30T22:19:26.330Z,16.40
2022-10-30T22:21:52.722Z,16.42
2022-10-30T22:24:19.158Z,16.39
2022-10-30T22:26:46.228Z,16.29
2022-10-30T22:29:12.756Z,16.28
2022-10-30T22:31:39.150Z,16.33
2022-10-30T22:34:05.556Z,16.37
2022-10-30T22:36:33.596Z,16.35
2022-10-30T22:39:05.650Z,16.40
2022-10-30T22:41:36.491Z,16.43
2022-10-30T22:44:08.001Z,16.42
2022-10-30T22:46:35.710Z,16.35
2022-10-30T22:49:02.286Z,16.35
2022-10-30T22:51:32.887Z,16.42
2022-10-30T22:54:01.779Z,16.47
2022-10-30T22:56:31.512Z,16.50
2022-10-30T22:59:00.993Z,16.51
2022-10-30T23:01:29.651Z,16.54
2022-10-30T23:03:58.593Z,16.50
2022-10-30T23:06:25.750Z,16.49
2022-10-30T23:08:54.549Z,16.52
2022-10-30T23:11:21.309Z,16.59
2022-10-30T23:13:48.391Z,16.65
2022-10-30T23:16:18.874Z,16.71
2022-10-30T23:18:46.271Z,16.73
2022-10-30T23:21:16.170Z,16.75
2022-10-30T23:23:43.532Z,16.75
2022-10-30T23:26:17.324Z,16.78
2022-10-30T23:28:44.931Z,16.76
2022-10-30T23:31:30.562Z,16.83
2022-10-30T23:33:59.464Z,16.80
2022-10-30T23:36:26.985Z,16.75
2022-10-30T23:38:55.038Z,16.74
2022-10-30T23:41:23.573Z,16.75
2022-10-30T23:43:53.913Z,16.78
2022-10-30T23:46:20.527Z,16.80
2022-10-30T23:48:47.221Z,16.83
2022-10-30T23:51:13.835Z,16.80
2022-10-30T23:53:40.250Z,16.81
2022-10-30T23:56:07.171Z,16.82
2022-10-30T23:58:33.621Z,16.80
